• Join FlightAware (Why Join?)
  • Login
  • US Flag 
02:32AM EDT


 

Airport Tracker/Info


-or-


 

Live Flight TrackerFlight Track Log ✈ FLG3588 ✈ 07-Jan-2014 ✈ KATL - KFWA

Flight Track Log - Related Links

Times and Time Zones

All times are in EST time to prevent confusion due to time zone crossing. See the FLG3588 flight status page for this flight to view local times or setup timezone preferences in your user account.

Time Position Orientation Groundspeed Altitude Reporting Facility
EST Latitude Longitude Course Direction KTS MPH feet Rate Location/Type
03:20PM 33.6500 -84.4500 292° West 139 160 2,300  Level Atlanta TRACON
03:21PM 33.6667 -84.5000 292° West 214 246 4,000 2,400 Climbing Atlanta TRACON
03:22PM 33.7000 -84.5667 301° West 245 282 7,100 2,520 Climbing Atlanta TRACON
03:23PM 33.7667 -84.5833 348° North 275 316 9,100 2,040 Climbing Atlanta TRACON
03:24PM 33.8500 -84.5833 360° North 273 314 11,200 1,620 Climbing Atlanta TRACON
03:25PM 33.9369 -84.5847 359° North 333 383 12,600 1,440 Climbing Atlanta Center
03:26PM 34.0414 -84.5878 359° North 340 391 14,400 1,800 Climbing Atlanta Center
03:27PM 34.1375 -84.5883 360° North 340 391 16,300 1,800 Climbing Atlanta Center
03:28PM 34.2397 -84.5942 357° North 353 406 18,000 1,200 Climbing Atlanta Center
03:29PM 34.3397 -84.6072 354° North 353 406 18,700 900 Climbing Atlanta Center
03:30PM 34.4378 -84.6333 348° North 358 412 19,900 1,200 Climbing Atlanta Center
03:31PM 34.5419 -84.6592 348° North 366 421 21,100 1,200 Climbing Atlanta Center
03:32PM 34.6461 -84.6853 348° North 373 429 22,300 1,200 Climbing Atlanta Center
03:33PM 34.7503 -84.7111 348° North 378 435 23,500 1,140 Climbing Atlanta Center
03:34PM 34.8544 -84.7375 348° North 378 435 24,600 960 Climbing Atlanta Center
03:35PM 34.9608 -84.7636 349° North 378 435 25,500 900 Climbing Atlanta Center
03:36PM 35.0672 -84.7900 349° North 378 435 26,400 780 Climbing Atlanta Center
03:37PM 35.1756 -84.8164 349° North 389 448 27,100 660 Climbing Atlanta Center
03:38PM 35.2858 -84.8428 349° North 395 455 27,800 420 Climbing Atlanta Center
03:39PM 35.3964 -84.8719 348° North 395 455 28,000 60 Climbing Atlanta Center
03:40PM 35.5128 -84.9011 348° North 407 468 28,000  Level Atlanta Center
03:41PM 35.6336 -84.9331 348° North 423 487 28,000  Level Atlanta Center
03:42PM 35.7544 -84.9625 349° North 429 494 28,000  Level Atlanta Center
03:43PM 35.8628 -84.9894 349° North 440 506 28,000  Level Atlanta Center
03:45PM 36.0350 -85.0319 349° North 450 518 28,000  Level Indianapolis Center
03:46PM 36.1589 -85.0639 348° North 450 518 28,000  Level Indianapolis Center
03:47PM 36.2822 -85.0958 348° North 452 520 28,000  Level Indianapolis Center
03:48PM 36.4047 -85.1281 348° North 449 517 28,000  Level Indianapolis Center
03:49PM 36.5272 -85.1581 349° North 448 516 28,000  Level Indianapolis Center
03:50PM 36.6508 -85.1906 348° North 451 519 28,000  Level Indianapolis Center
03:51PM 36.7739 -85.2233 348° North 452 520 28,000  Level Indianapolis Center
03:52PM 36.8950 -85.2544 348° North 445 512 28,000  Level Indianapolis Center
03:53PM 37.0425 -85.2942 348° North 450 518 28,000  Level Indianapolis Center
03:54PM 37.1511 -85.3214 349° North 449 517 28,000  Level Indianapolis Center
03:55PM 37.2719 -85.3536 348° North 444 511 28,000  Level Indianapolis Center
03:56PM 37.4139 -85.3917 348° North 444 511 28,000  Level Indianapolis Center
03:57PM 37.5344 -85.4228 348° North 441 507 28,000  Level Indianapolis Center
03:58PM 37.6611 -85.4211 North 452 520 28,000  Level Indianapolis Center
03:59PM 37.7903 -85.4142 North 461 531 28,000  Level Indianapolis Center
04:00PM 37.9117 -85.4025 North 468 539 28,000 -180 Level Indianapolis Center
04:01PM 38.0394 -85.3947 North 460 529 27,700 -540 Descending Indianapolis Center
04:02PM 38.1678 -85.3853 North 460 529 27,000 -360 Descending Indianapolis Center
04:03PM 38.3144 -85.3756 North 444 511 27,000  Level Indianapolis Center
04:04PM 38.4314 -85.3681 North 426 490 27,000  Level Indianapolis Center
04:05PM 38.5539 -85.3600 North 436 502 27,000  Level Indianapolis Center
04:06PM 38.6811 -85.3517 North 439 505 27,000  Level Indianapolis Center
04:07PM 38.8047 -85.3439 North 445 512 27,000  Level Indianapolis Center
04:08PM 38.9303 -85.3350 North 452 520 27,000  Level Indianapolis Center
04:09PM 39.0539 -85.3283 North 450 518 27,000  Level Indianapolis Center
04:10PM 39.1758 -85.3219 North 446 513 27,000  Level Indianapolis Center
04:11PM 39.3019 -85.3097 North 450 518 27,000  Level Indianapolis Center
04:12PM 39.4522 -85.3006 North 452 520 27,000  Level Indianapolis Center
04:13PM 39.5767 -85.2917 North 453 521 27,000 -1,140 Level Indianapolis Center
04:14PM 39.7022 -85.2842 North 455 524 24,700 -1,500 Descending Indianapolis Center
04:15PM 39.8194 -85.2750 North 435 501 24,000 -780 Descending Indianapolis Center
04:16PM 39.9267 -85.2678 North 399 459 23,200 -1,440 Descending Indianapolis Center
04:17PM 40.0406 -85.2603 North 408 470 21,100 -1,140 Descending Indianapolis Center
04:18PM 40.1742 -85.2514 North 405 466 20,900 -1,500 Descending Indianapolis Center
04:20PM 40.2703 -85.2436 North 358 412 18,100 -2,520 Descending Indianapolis Center
04:21PM 40.3628 -85.2383 North 337 388 15,800 -2,340 Descending Indianapolis Center
04:21PM 40.4142 -85.2344 North 324 373 14,300 -2,460 Descending Chicago Center
04:22PM 40.5000 -85.2264 North 315 362 11,800 -2,100 Descending Chicago Center
04:23PM 40.5944 -85.2208 North 332 382 10,100 -900 Descending Chicago Center
04:24PM 40.6906 -85.2128 North 333 383 10,000 -600 Descending Chicago Center
04:25PM 40.7600 -85.2083 North 261 300 8,900 -1,560 Descending Chicago Center
04:26PM 40.8281 -85.2036 North 248 285 6,900 -1,860 Descending Chicago Center
04:27PM 40.8875 -85.1561 31° Northeast 269 310 5,100 -1,560 Descending Chicago Center
04:28PM 40.9389 -85.0739 50° Northeast 256 295 3,800 -1,080 Descending Chicago Center
04:29PM 40.9831 -85.0422 28° Northeast 232 267 3,000 -660 Descending Chicago Center
04:30PM 41.0169 -85.0781 321° Northwest 182 209 2,500 -480 Descending Chicago Center
04:31PM 41.0203 -85.1292 275° West 155 178 2,100 -360 Descending Chicago Center
04:32PM 41.0056 -85.1692 244° Southwest 146 168 1,800 -300 Descending Chicago Center